createdAt,value
2022-08-23T00:00:05.616Z,10.89
2022-08-23T00:01:03.405Z,10.89
2022-08-23T00:02:03.158Z,10.86
2022-08-23T00:03:03.855Z,10.86
2022-08-23T00:04:04.550Z,10.86
2022-08-23T00:05:09.056Z,10.86
2022-08-23T00:06:06.127Z,10.85
2022-08-23T00:07:07.012Z,10.85
2022-08-23T00:08:07.896Z,10.82
2022-08-23T00:09:08.783Z,10.78
2022-08-23T00:10:09.677Z,10.70
2022-08-23T00:11:10.562Z,10.64
2022-08-23T00:12:11.440Z,10.60
2022-08-23T00:13:12.328Z,10.56
2022-08-23T00:14:13.203Z,10.52
2022-08-23T00:15:14.097Z,10.48
2022-08-23T00:16:14.981Z,10.45
2022-08-23T00:17:33.482Z,10.44
2022-08-23T00:18:17.633Z,10.44
2022-08-23T00:19:17.523Z,10.41
2022-08-23T00:20:18.421Z,10.38
2022-08-23T00:21:19.303Z,10.38
2022-08-23T00:22:20.184Z,10.36
2022-08-23T00:23:21.070Z,10.36
2022-08-23T00:24:21.943Z,10.33
2022-08-23T00:25:22.838Z,10.33
2022-08-23T00:26:23.720Z,10.30
2022-08-23T00:27:24.603Z,10.30
2022-08-23T00:28:25.488Z,10.27
2022-08-23T00:29:26.376Z,10.27
2022-08-23T00:30:27.270Z,10.27
2022-08-23T00:31:28.147Z,10.26
2022-08-23T00:32:29.031Z,10.26
2022-08-23T00:33:29.918Z,10.26
2022-08-23T00:34:30.821Z,10.27
2022-08-23T00:35:31.738Z,10.29
2022-08-23T00:36:32.627Z,10.27
2022-08-23T00:37:33.581Z,10.29
2022-08-23T00:38:35.195Z,10.29
2022-08-23T00:39:35.138Z,10.33
2022-08-23T00:40:36.041Z,10.34
2022-08-23T00:41:36.920Z,10.34
2022-08-23T00:42:37.798Z,10.36
2022-08-23T00:43:38.680Z,10.36
2022-08-23T00:44:39.576Z,10.40
2022-08-23T00:45:40.471Z,10.40
2022-08-23T00:46:41.345Z,10.41
2022-08-23T00:47:45.033Z,10.41
2022-08-23T00:48:42.941Z,10.38
2022-08-23T00:49:43.824Z,10.38
2022-08-23T00:50:44.724Z,10.34
2022-08-23T00:51:52.769Z,10.33
2022-08-23T00:52:47.429Z,10.29
2022-08-23T00:53:47.301Z,10.27
2022-08-23T00:54:48.175Z,10.20
2022-08-23T00:55:49.091Z,10.15
2022-08-23T00:56:50.048Z,10.11
2022-08-23T00:57:50.887Z,10.07
2022-08-23T00:58:51.796Z,10.04
2022-08-23T00:59:52.700Z,9.99
2022-08-23T01:00:53.604Z,9.97
2022-08-23T01:01:54.540Z,9.96
2022-08-23T01:02:55.413Z,9.90
2022-08-23T01:03:59.196Z,9.89
2022-08-23T01:04:58.067Z,9.81
2022-08-23T01:05:57.968Z,9.79
2022-08-23T01:06:58.847Z,9.78
2022-08-23T01:07:59.873Z,9.76
2022-08-23T01:09:00.255Z,9.74
2022-08-23T01:10:03.409Z,9.72
2022-08-23T01:11:01.831Z,9.72
2022-08-23T01:12:03.592Z,9.71
2022-08-23T01:13:03.468Z,9.71
2022-08-23T01:14:04.451Z,9.71
2022-08-23T01:15:05.264Z,9.69
2022-08-23T01:16:06.148Z,9.69
2022-08-23T01:17:07.046Z,9.71
2022-08-23T01:18:07.916Z,9.71
2022-08-23T01:19:08.800Z,9.69
2022-08-23T01:20:10.332Z,9.66
2022-08-23T01:21:10.515Z,9.65
2022-08-23T01:22:11.029Z,9.64
2022-08-23T01:23:11.912Z,9.64
2022-08-23T01:24:19.221Z,9.61
2022-08-23T01:25:14.569Z,9.65
2022-08-23T01:26:14.456Z,9.65
2022-08-23T01:27:16.232Z,9.65
2022-08-23T01:28:16.106Z,9.65
2022-08-23T01:29:16.989Z,9.68
2022-08-23T01:30:17.871Z,9.66
2022-08-23T01:31:18.771Z,9.68
2022-08-23T01:32:19.653Z,9.66
2022-08-23T01:33:20.533Z,9.68
2022-08-23T01:34:21.411Z,9.65
2022-08-23T01:36:23.144Z,9.54
2022-08-23T01:37:24.028Z,9.51
2022-08-23T01:38:24.915Z,9.46
2022-08-23T01:39:25.623Z,9.40
2022-08-23T01:40:26.683Z,9.38
2022-08-23T01:41:27.072Z,9.36
2022-08-23T01:42:27.954Z,9.38
2022-08-23T01:43:28.829Z,9.38
2022-08-23T01:44:29.711Z,9.38
2022-08-23T01:45:30.603Z,9.39
2022-08-23T01:46:31.496Z,9.40
2022-08-23T01:47:32.377Z,9.39
2022-08-23T01:48:33.258Z,9.39
2022-08-23T01:49:34.141Z,9.40
2022-08-23T01:50:35.024Z,9.40
2022-08-23T01:51:35.924Z,9.39
2022-08-23T01:52:36.814Z,9.39
2022-08-23T01:53:37.689Z,9.39
2022-08-23T01:54:38.571Z,9.39
2022-08-23T01:55:39.446Z,9.38
2022-08-23T01:56:40.336Z,9.39
2022-08-23T01:57:41.220Z,9.36
2022-08-23T01:58:42.119Z,9.36
2022-08-23T01:59:42.997Z,9.39
2022-08-23T02:00:43.939Z,9.38
2022-08-23T02:01:44.885Z,9.38
2022-08-23T02:02:45.730Z,9.36
2022-08-23T02:03:46.621Z,9.33
2022-08-23T02:04:47.395Z,9.31
2022-08-23T02:05:48.357Z,9.26
2022-08-23T02:06:49.217Z,9.23
2022-08-23T02:07:50.104Z,9.24
2022-08-23T02:08:52.506Z,9.23
2022-08-23T02:09:51.877Z,9.21
2022-08-23T02:10:52.780Z,9.21
2022-08-23T02:11:53.680Z,9.18
2022-08-23T02:12:54.591Z,9.15
2022-08-23T02:13:55.457Z,9.11
2022-08-23T02:14:56.340Z,9.04
2022-08-23T02:15:57.252Z,8.99
2022-08-23T02:17:03.457Z,8.96
2022-08-23T02:18:00.075Z,8.94
2022-08-23T02:18:59.509Z,8.95
2022-08-23T02:20:00.399Z,8.96
2022-08-23T02:21:01.369Z,8.96
2022-08-23T02:22:02.199Z,8.96
2022-08-23T02:23:03.082Z,8.99
2022-08-23T02:24:03.972Z,9.01
2022-08-23T02:25:04.465Z,9.01
2022-08-23T02:26:05.356Z,9.01
2022-08-23T02:27:06.228Z,9.02
2022-08-23T02:28:07.123Z,9.02
2022-08-23T02:29:07.995Z,9.01
2022-08-23T02:30:08.880Z,8.98
2022-08-23T02:31:09.800Z,8.95
2022-08-23T02:32:10.739Z,8.94
2022-08-23T02:33:11.715Z,8.92
2022-08-23T02:37:02.064Z,8.89
2022-08-23T02:38:02.973Z,8.89
2022-08-23T02:39:03.873Z,8.86
2022-08-23T02:40:04.835Z,8.86
2022-08-23T02:41:05.716Z,8.87
2022-08-23T02:42:06.634Z,8.86
2022-08-23T02:43:07.540Z,8.87
2022-08-23T02:44:08.450Z,8.89
2022-08-23T02:45:09.351Z,8.92
2022-08-23T02:46:10.297Z,8.92
2022-08-23T02:47:11.196Z,8.94
2022-08-23T02:48:12.098Z,8.95
2022-08-23T02:49:13.007Z,8.98
2022-08-23T02:50:13.904Z,8.98
2022-08-23T02:51:14.821Z,8.96
2022-08-23T02:52:15.729Z,8.94
2022-08-23T02:53:16.649Z,8.94
2022-08-23T02:54:17.557Z,8.94
2022-08-23T02:55:18.546Z,8.92
2022-08-23T02:56:21.481Z,8.91
2022-08-23T02:57:20.394Z,8.92
2022-08-23T02:58:21.297Z,8.89
2022-08-23T02:59:22.209Z,8.92
2022-08-23T03:00:23.106Z,8.91
2022-08-23T03:01:24.020Z,8.91
2022-08-23T03:02:25.013Z,8.91
2022-08-23T03:03:25.914Z,8.92
2022-08-23T03:04:26.817Z,8.94
2022-08-23T03:05:27.732Z,8.94
2022-08-23T03:06:28.653Z,8.95
2022-08-23T03:07:29.552Z,8.96
2022-08-23T03:08:30.457Z,8.94
2022-08-23T03:09:31.376Z,8.94
2022-08-23T03:10:32.290Z,8.91
2022-08-23T03:11:33.199Z,8.87
2022-08-23T03:12:34.101Z,8.86
2022-08-23T03:13:35.008Z,8.81
2022-08-23T03:14:35.914Z,8.77
2022-08-23T03:15:36.727Z,8.73
2022-08-23T03:16:37.649Z,8.70
2022-08-23T03:17:38.541Z,8.66
2022-08-23T03:18:39.445Z,8.66
2022-08-23T03:19:40.351Z,8.62
2022-08-23T03:20:41.255Z,8.62
2022-08-23T03:21:43.394Z,8.62
2022-08-23T03:22:48.347Z,8.63
2022-08-23T03:23:44.628Z,8.66
2022-08-23T03:24:44.533Z,8.66
2022-08-23T03:25:45.439Z,8.71
2022-08-23T03:26:46.353Z,8.71
2022-08-23T03:27:47.263Z,8.74
2022-08-23T03:28:48.169Z,8.74
2022-08-23T03:29:49.085Z,8.77
2022-08-23T03:30:49.967Z,8.76
2022-08-23T03:31:50.862Z,8.77
2022-08-23T03:32:51.685Z,8.76
2022-08-23T03:33:52.570Z,8.76
2022-08-23T03:34:53.452Z,8.76
2022-08-23T03:35:54.350Z,8.74
2022-08-23T03:36:55.228Z,8.71
2022-08-23T03:37:56.129Z,8.66
2022-08-23T03:38:56.983Z,8.65
2022-08-23T03:39:57.903Z,8.62
2022-08-23T03:40:58.770Z,8.59
2022-08-23T03:41:59.673Z,8.59
2022-08-23T03:43:00.242Z,8.56
2022-08-23T03:44:01.147Z,8.58
2022-08-23T03:45:02.494Z,8.56
2022-08-23T03:46:02.653Z,8.56
2022-08-23T03:47:03.552Z,8.55
2022-08-23T03:48:04.433Z,8.52
2022-08-23T03:49:05.311Z,8.52
2022-08-23T03:50:06.202Z,8.50
2022-08-23T03:51:07.079Z,8.48
2022-08-23T03:52:07.972Z,8.47
2022-08-23T03:53:09.043Z,8.43
2022-08-23T03:54:09.439Z,8.45
2022-08-23T03:55:10.341Z,8.43
2022-08-23T03:56:11.249Z,8.41
2022-08-23T03:57:12.153Z,8.40
2022-08-23T03:58:13.055Z,8.38
2022-08-23T03:59:13.961Z,8.37
2022-08-23T04:00:14.854Z,8.37
2022-08-23T04:01:16.558Z,8.37
2022-08-23T04:02:16.519Z,8.34
2022-08-23T04:03:16.985Z,8.36
2022-08-23T04:04:17.867Z,8.36
2022-08-23T04:05:18.711Z,8.34
2022-08-23T04:06:19.579Z,8.33
2022-08-23T04:07:20.399Z,8.29
2022-08-23T04:08:31.911Z,8.26
2022-08-23T04:09:23.053Z,8.26
2022-08-23T04:10:22.893Z,8.23
2022-08-23T04:11:23.732Z,8.20
2022-08-23T04:12:24.571Z,8.20
2022-08-23T04:13:25.407Z,8.18
2022-08-23T04:14:26.073Z,8.16
2022-08-23T04:15:26.897Z,8.15
2022-08-23T04:16:27.776Z,8.15
2022-08-23T04:17:32.285Z,8.12
2022-08-23T04:18:29.406Z,8.15
2022-08-23T04:19:30.240Z,8.15
2022-08-23T04:20:31.129Z,8.18
2022-08-23T04:21:32.013Z,8.16
2022-08-23T04:22:32.801Z,8.18
2022-08-23T04:23:33.634Z,8.16
2022-08-23T04:24:34.460Z,8.16
2022-08-23T04:25:35.966Z,8.18
2022-08-23T04:26:36.262Z,8.11
2022-08-23T04:27:37.004Z,8.11
2022-08-23T04:28:37.828Z,8.12
2022-08-23T04:29:38.656Z,8.12
2022-08-23T04:30:39.516Z,8.11
2022-08-23T04:31:40.335Z,8.15
2022-08-23T04:32:41.115Z,8.15
2022-08-23T04:33:41.851Z,8.18
2022-08-23T04:34:43.002Z,8.18
2022-08-23T04:35:43.487Z,8.20
2022-08-23T04:36:45.992Z,8.20
2022-08-23T04:37:46.040Z,8.22
2022-08-23T04:38:45.863Z,8.20
2022-08-23T04:39:46.721Z,8.20
2022-08-23T04:40:48.424Z,8.19
2022-08-23T04:41:48.252Z,8.20
2022-08-23T04:42:49.081Z,8.20
2022-08-23T04:43:49.905Z,8.23
2022-08-23T04:44:50.784Z,8.23
2022-08-23T04:45:51.621Z,8.28
2022-08-23T04:46:52.443Z,8.25
2022-08-23T04:47:53.278Z,8.19
2022-08-23T04:48:54.115Z,8.15
2022-08-23T04:49:54.936Z,8.07
2022-08-23T04:50:55.826Z,8.04
2022-08-23T04:51:56.648Z,8.00
2022-08-23T04:52:57.465Z,7.97
2022-08-23T04:53:58.307Z,7.93
2022-08-23T04:54:59.133Z,7.90
2022-08-23T04:55:59.961Z,7.92
2022-08-23T04:57:00.782Z,7.90
2022-08-23T04:58:01.929Z,7.87
2022-08-23T04:59:02.385Z,7.90
2022-08-23T05:00:03.226Z,7.90
2022-08-23T05:01:04.200Z,7.93
2022-08-23T05:02:05.025Z,7.95
2022-08-23T05:03:05.864Z,7.98
2022-08-23T05:04:06.678Z,8.00
2022-08-23T05:05:07.521Z,8.00
2022-08-23T05:06:08.349Z,8.01
2022-08-23T05:07:09.177Z,8.01
2022-08-23T05:08:10.014Z,8.00
2022-08-23T05:09:10.908Z,7.98
2022-08-23T05:10:11.712Z,7.93
2022-08-23T05:11:12.535Z,7.87
2022-08-23T05:12:13.394Z,7.85
2022-08-23T05:13:14.219Z,7.80
2022-08-23T05:14:15.053Z,7.79
2022-08-23T05:15:15.907Z,7.75
2022-08-23T05:16:16.726Z,7.77
2022-08-23T05:17:17.553Z,7.77
2022-08-23T05:18:18.384Z,7.77
2022-08-23T05:19:19.212Z,7.79
2022-08-23T05:20:20.060Z,7.82
2022-08-23T05:21:20.882Z,7.83
2022-08-23T05:22:21.724Z,7.83
2022-08-23T05:23:23.520Z,7.86
2022-08-23T05:24:24.260Z,7.85
2022-08-23T05:25:24.098Z,7.86
2022-08-23T05:26:24.946Z,7.86
2022-08-23T05:27:25.756Z,7.87
2022-08-23T05:28:26.582Z,7.87
2022-08-23T05:29:27.406Z,7.90
2022-08-23T05:30:28.296Z,7.90
2022-08-23T05:31:29.135Z,7.90
2022-08-23T05:32:33.361Z,7.90
2022-08-23T05:33:30.456Z,7.90
2022-08-23T05:34:31.325Z,7.89
2022-08-23T05:35:32.162Z,7.89
2022-08-23T05:36:32.988Z,7.92
2022-08-23T05:37:33.817Z,7.90
2022-08-23T05:38:34.655Z,7.90
2022-08-23T05:39:37.059Z,7.89
2022-08-23T05:40:36.100Z,7.90
2022-08-23T05:41:38.420Z,7.89
2022-08-23T05:42:37.896Z,7.90
2022-08-23T05:43:38.725Z,7.90
2022-08-23T05:44:39.556Z,7.92
2022-08-23T05:45:40.394Z,7.92
2022-08-23T05:46:40.975Z,7.97
2022-08-23T05:47:41.715Z,8.04
2022-08-23T05:48:42.534Z,8.07
2022-08-23T05:49:43.370Z,8.11
2022-08-23T05:50:44.216Z,8.19
2022-08-23T05:51:45.039Z,8.23
2022-08-23T05:52:50.803Z,8.29
2022-08-23T05:53:46.394Z,8.33
2022-08-23T05:54:47.215Z,8.38
2022-08-23T05:55:48.054Z,8.43
2022-08-23T05:56:48.882Z,8.47
2022-08-23T05:57:49.704Z,8.50
2022-08-23T05:58:50.559Z,8.55
2022-08-23T05:59:51.357Z,8.59
2022-08-23T06:00:52.239Z,8.61
2022-08-23T06:01:53.032Z,8.63
2022-08-23T06:02:53.858Z,8.66
2022-08-23T06:03:54.685Z,8.71
2022-08-23T06:04:57.389Z,8.74
2022-08-23T06:05:56.485Z,8.79
2022-08-23T06:06:57.281Z,8.81
2022-08-23T06:07:58.179Z,8.86
2022-08-23T06:08:58.965Z,8.87
2022-08-23T06:09:59.528Z,8.91
2022-08-23T06:11:00.368Z,8.92
2022-08-23T06:12:01.190Z,8.98
2022-08-23T06:13:02.018Z,8.99
2022-08-23T06:14:02.905Z,9.02
2022-08-23T06:15:03.682Z,9.08
2022-08-23T06:16:14.918Z,9.13
2022-08-23T06:17:06.238Z,9.15
2022-08-23T06:18:06.063Z,9.17
2022-08-23T06:19:06.884Z,9.23
2022-08-23T06:20:07.746Z,9.28
2022-08-23T06:21:08.555Z,9.32
2022-08-23T06:22:09.388Z,9.35
2022-08-23T06:23:11.250Z,9.40
2022-08-23T06:24:10.913Z,9.43
2022-08-23T06:25:11.737Z,9.48
2022-08-23T06:26:12.576Z,9.53
2022-08-23T06:27:13.404Z,9.57
2022-08-23T06:28:15.133Z,9.60
2022-08-23T06:29:15.002Z,9.68
2022-08-23T06:30:15.772Z,9.74
2022-08-23T06:31:16.740Z,9.79
2022-08-23T06:32:17.598Z,9.89
2022-08-23T06:33:18.413Z,9.94
2022-08-23T06:34:19.210Z,9.97
2022-08-23T06:35:39.813Z,10.04
2022-08-23T06:36:21.790Z,10.08
2022-08-23T06:37:21.592Z,10.14
2022-08-23T06:38:22.422Z,10.17
2022-08-23T06:39:23.258Z,10.23
2022-08-23T06:40:24.146Z,10.26
2022-08-23T06:41:24.984Z,10.29
2022-08-23T06:42:40.989Z,10.32
2022-08-23T06:43:27.570Z,10.36
2022-08-23T06:44:27.376Z,10.40
2022-08-23T06:45:35.074Z,10.42
2022-08-23T06:46:30.007Z,10.47
2022-08-23T06:47:29.803Z,10.48
2022-08-23T06:48:30.633Z,10.55
2022-08-23T06:49:31.468Z,10.63
2022-08-23T06:50:32.646Z,10.67
2022-08-23T06:51:33.184Z,10.74
2022-08-23T06:52:33.996Z,10.82
2022-08-23T06:53:34.816Z,10.88
2022-08-23T06:54:35.653Z,10.94
2022-08-23T06:55:36.241Z,10.99
2022-08-23T06:56:37.061Z,11.04
2022-08-23T06:57:37.890Z,11.07
2022-08-23T06:58:38.721Z,11.10
2022-08-23T06:59:39.549Z,11.14
2022-08-23T07:00:40.460Z,11.18
2022-08-23T07:01:45.598Z,11.21
2022-08-23T07:02:42.258Z,11.24
2022-08-23T07:03:43.039Z,11.29
2022-08-23T07:04:43.881Z,11.39
2022-08-23T07:05:44.711Z,11.47
2022-08-23T07:06:45.540Z,11.57
2022-08-23T07:07:46.360Z,11.69
2022-08-23T07:08:47.190Z,11.80
2022-08-23T07:09:48.011Z,11.91
2022-08-23T07:10:48.865Z,12.04
2022-08-23T07:11:49.685Z,12.20
2022-08-23T07:12:50.518Z,12.37
2022-08-23T07:13:51.333Z,12.62
2022-08-23T07:14:52.172Z,12.86
2022-08-23T07:15:53.048Z,13.19
2022-08-23T07:16:53.841Z,13.49
2022-08-23T07:17:54.668Z,13.81
2022-08-23T07:18:55.497Z,14.12
2022-08-23T07:19:56.316Z,14.47
2022-08-23T07:20:57.157Z,14.80
2022-08-23T07:21:57.975Z,15.11
2022-08-23T07:22:58.818Z,15.46
2022-08-23T07:23:59.635Z,15.76
2022-08-23T07:25:00.464Z,16.02
2022-08-23T07:26:01.295Z,16.34
2022-08-23T07:27:02.124Z,16.63
2022-08-23T07:28:03.038Z,16.83
2022-08-23T07:29:03.801Z,17.11
2022-08-23T07:30:04.626Z,17.36
2022-08-23T07:31:05.464Z,17.59
2022-08-23T07:32:07.203Z,17.81
2022-08-23T07:33:07.282Z,17.96
2022-08-23T07:34:07.659Z,18.14
2022-08-23T07:35:08.495Z,18.35
2022-08-23T07:36:09.330Z,18.54
2022-08-23T07:37:11.588Z,18.78
2022-08-23T07:38:11.875Z,18.94
2022-08-23T07:39:11.704Z,19.16
2022-08-23T07:40:20.200Z,19.33
2022-08-23T07:41:14.261Z,19.51
2022-08-23T07:42:23.306Z,19.66
2022-08-23T07:43:15.811Z,19.78
2022-08-23T07:44:18.021Z,19.78
2022-08-23T07:45:16.242Z,19.84
2022-08-23T07:46:17.123Z,19.86
2022-08-23T07:47:17.919Z,19.88
2022-08-23T07:48:37.104Z,19.92
2022-08-23T07:49:20.468Z,19.99
2022-08-23T07:50:20.318Z,20.06
2022-08-23T07:51:21.139Z,20.17
2022-08-23T07:52:21.969Z,20.26
2022-08-23T07:53:37.415Z,20.33
2022-08-23T07:54:24.517Z,20.38
2022-08-23T07:55:24.347Z,20.43
2022-08-23T07:56:25.177Z,20.50
2022-08-23T07:57:26.036Z,20.48
2022-08-23T07:58:26.833Z,20.48
2022-08-23T07:59:31.443Z,20.52
2022-08-23T08:00:29.401Z,20.59
2022-08-23T08:01:29.262Z,20.64
2022-08-23T08:02:30.102Z,20.67
2022-08-23T08:03:30.917Z,20.76
2022-08-23T08:04:31.722Z,20.89
2022-08-23T08:05:32.546Z,20.94
2022-08-23T08:06:33.387Z,20.99
2022-08-23T08:07:35.396Z,21.06
2022-08-23T08:08:34.944Z,21.13
2022-08-23T08:09:35.776Z,21.19
2022-08-23T08:10:36.628Z,21.27
2022-08-23T08:11:37.447Z,21.35
2022-08-23T08:12:38.273Z,21.40
2022-08-23T08:13:39.102Z,21.47
2022-08-23T08:14:39.938Z,21.53
2022-08-23T08:15:40.801Z,21.54
2022-08-23T08:16:41.605Z,21.50
2022-08-23T08:17:42.441Z,21.42
2022-08-23T08:18:43.311Z,21.32
2022-08-23T08:19:44.108Z,21.29
2022-08-23T08:20:44.939Z,21.27
2022-08-23T08:21:45.780Z,21.24
2022-08-23T08:22:48.544Z,21.24
2022-08-23T08:23:47.242Z,21.22
2022-08-23T08:24:48.083Z,21.21
2022-08-23T08:25:48.946Z,21.22
2022-08-23T08:26:49.745Z,21.21
2022-08-23T08:27:50.575Z,21.13
2022-08-23T08:28:51.403Z,21.10
2022-08-23T08:29:52.232Z,21.09
2022-08-23T08:30:53.122Z,20.94
2022-08-23T08:31:54.541Z,20.87
2022-08-23T08:32:54.419Z,20.80
2022-08-23T08:33:55.289Z,20.76
2022-08-23T08:34:56.094Z,20.73
2022-08-23T08:35:59.351Z,20.66
2022-08-23T08:36:58.989Z,20.57
2022-08-23T08:37:58.462Z,20.54
2022-08-23T08:39:00.730Z,20.51
2022-08-23T08:39:59.786Z,20.51
2022-08-23T08:41:00.595Z,20.54
2022-08-23T08:42:04.280Z,20.54
2022-08-23T08:43:02.360Z,20.55
2022-08-23T08:44:02.715Z,20.59
2022-08-23T08:45:03.572Z,20.62
2022-08-23T08:46:04.239Z,20.64
2022-08-23T08:47:05.038Z,20.69
2022-08-23T08:48:08.275Z,20.70
2022-08-23T08:49:07.586Z,20.74
2022-08-23T08:50:07.417Z,20.74
2022-08-23T08:51:08.065Z,20.74
2022-08-23T08:52:08.892Z,20.76
2022-08-23T08:53:09.720Z,20.74
2022-08-23T08:54:10.553Z,20.74
2022-08-23T08:55:11.377Z,20.72
2022-08-23T08:56:12.266Z,20.67
2022-08-23T08:57:12.813Z,20.67
2022-08-23T08:58:13.617Z,20.62
2022-08-23T08:59:14.440Z,20.59
2022-08-23T09:00:15.272Z,20.59
2022-08-23T09:01:16.162Z,20.58
2022-08-23T09:02:32.002Z,20.54
2022-08-23T09:03:18.748Z,20.54
2022-08-23T09:04:18.512Z,20.51
2022-08-23T09:05:19.393Z,20.50
2022-08-23T09:06:20.215Z,20.48
2022-08-23T09:07:21.037Z,20.47
2022-08-23T09:08:21.871Z,20.41
2022-08-23T09:09:22.709Z,20.36
2022-08-23T09:10:23.528Z,20.35
2022-08-23T09:11:24.411Z,20.33
2022-08-23T09:12:25.214Z,20.29
2022-08-23T09:13:26.049Z,20.26
2022-08-23T09:14:26.873Z,20.24
2022-08-23T09:15:27.701Z,20.24
2022-08-23T09:16:28.768Z,20.21
2022-08-23T09:17:29.175Z,20.21
2022-08-23T09:18:30.007Z,20.23
2022-08-23T09:19:30.875Z,20.20
2022-08-23T09:20:33.416Z,20.20
2022-08-23T09:21:32.564Z,20.17
2022-08-23T09:22:33.399Z,20.17
2022-08-23T09:23:34.225Z,20.17
2022-08-23T09:24:35.054Z,20.18
2022-08-23T09:25:35.882Z,20.23
2022-08-23T09:26:36.727Z,20.24
2022-08-23T09:27:37.551Z,20.28
2022-08-23T09:28:38.388Z,20.28
2022-08-23T09:29:39.212Z,20.32
2022-08-23T09:30:40.034Z,20.33
2022-08-23T09:31:41.006Z,20.33
2022-08-23T09:32:41.796Z,20.32
2022-08-23T09:33:42.625Z,20.33
2022-08-23T09:34:43.464Z,20.32
2022-08-23T09:35:44.284Z,20.32
2022-08-23T09:36:45.155Z,20.32
2022-08-23T09:37:45.977Z,20.35
2022-08-23T09:38:46.804Z,20.38
2022-08-23T09:39:47.667Z,20.39
2022-08-23T09:40:48.463Z,20.41
2022-08-23T09:41:49.301Z,20.43
2022-08-23T09:42:49.811Z,20.43
2022-08-23T09:43:50.637Z,20.51
2022-08-23T09:44:51.453Z,20.51
2022-08-23T09:45:52.291Z,20.52
2022-08-23T09:46:53.114Z,20.52
2022-08-23T09:47:53.943Z,20.54
2022-08-23T09:48:54.772Z,20.54
2022-08-23T09:49:55.712Z,20.54
2022-08-23T09:50:56.559Z,20.57
2022-08-23T09:51:57.388Z,20.55
2022-08-23T09:52:58.267Z,20.55
2022-08-23T09:53:59.077Z,20.55
2022-08-23T09:54:59.907Z,20.55
2022-08-23T09:56:00.736Z,20.54
2022-08-23T09:57:01.582Z,20.55
2022-08-23T09:58:02.408Z,20.57
2022-08-23T09:59:03.232Z,20.57
2022-08-23T10:00:04.058Z,20.55
2022-08-23T10:01:04.880Z,20.57
2022-08-23T10:02:05.770Z,20.58
2022-08-23T10:03:06.574Z,20.61
2022-08-23T10:04:07.404Z,20.62
2022-08-23T10:05:08.277Z,20.64
2022-08-23T10:06:09.947Z,20.67
2022-08-23T10:07:09.838Z,20.66
2022-08-23T10:08:11.051Z,20.66
2022-08-23T10:09:11.340Z,20.67
2022-08-23T10:10:12.160Z,20.70
2022-08-23T10:11:12.997Z,20.72
2022-08-23T10:12:13.640Z,20.73
2022-08-23T10:13:14.466Z,20.73
2022-08-23T10:14:15.296Z,20.72
2022-08-23T10:15:16.185Z,20.69
2022-08-23T10:16:17.079Z,20.69
2022-08-23T10:17:17.935Z,20.66
2022-08-23T10:18:18.766Z,20.66
2022-08-23T10:19:19.596Z,20.67
2022-08-23T10:20:20.461Z,20.66
2022-08-23T10:21:24.121Z,20.66
2022-08-23T10:22:22.131Z,20.66
2022-08-23T10:23:22.965Z,20.66
2022-08-23T10:24:23.789Z,20.70
2022-08-23T10:25:24.641Z,20.72
2022-08-23T10:26:25.462Z,20.73
2022-08-23T10:27:26.313Z,20.77
2022-08-23T10:28:27.124Z,20.76
2022-08-23T10:29:27.954Z,20.76
2022-08-23T10:30:28.772Z,20.74
2022-08-23T10:31:29.626Z,20.77
2022-08-23T10:32:30.445Z,20.77
2022-08-23T10:33:31.305Z,20.79
2022-08-23T10:34:32.112Z,20.80
2022-08-23T10:35:32.936Z,20.80
2022-08-23T10:36:33.771Z,20.79
2022-08-23T10:37:34.605Z,20.79
2022-08-23T10:38:35.436Z,20.77
2022-08-23T10:39:36.309Z,20.76
2022-08-23T10:40:37.116Z,20.76
2022-08-23T10:41:37.941Z,20.74
2022-08-23T10:42:38.879Z,20.76
2022-08-23T10:43:39.651Z,20.74
2022-08-23T10:44:40.469Z,20.77
2022-08-23T10:45:41.304Z,20.76
2022-08-23T10:46:42.152Z,20.76
2022-08-23T10:47:42.973Z,20.79
2022-08-23T10:48:43.808Z,20.79
2022-08-23T10:49:44.627Z,20.80
2022-08-23T10:50:45.461Z,20.80
2022-08-23T10:51:47.176Z,20.82
2022-08-23T10:52:47.020Z,20.82
2022-08-23T10:53:47.830Z,20.84
2022-08-23T10:54:48.663Z,20.85
2022-08-23T10:55:49.488Z,20.85
2022-08-23T10:56:51.133Z,20.92
2022-08-23T10:57:51.167Z,20.95
2022-08-23T10:58:51.988Z,20.99
2022-08-23T10:59:52.808Z,21.06
2022-08-23T11:00:53.644Z,21.09
2022-08-23T11:01:54.551Z,21.12
2022-08-23T11:02:55.444Z,21.12
2022-08-23T11:03:56.243Z,21.12
2022-08-23T11:04:57.073Z,21.13
2022-08-23T11:05:57.904Z,21.12
2022-08-23T11:06:58.734Z,21.14
2022-08-23T11:07:59.591Z,21.12
2022-08-23T11:09:00.407Z,21.13
2022-08-23T11:10:01.238Z,21.12
2022-08-23T11:11:01.877Z,21.13
2022-08-23T11:12:02.707Z,21.16
2022-08-23T11:13:03.377Z,21.17
2022-08-23T11:14:04.386Z,21.16
2022-08-23T11:15:05.161Z,21.16
2022-08-23T11:16:06.055Z,21.16
2022-08-23T11:17:06.857Z,21.16
2022-08-23T11:18:07.687Z,21.13
2022-08-23T11:19:08.517Z,21.12
2022-08-23T11:20:10.233Z,21.13
2022-08-23T11:21:10.070Z,21.13
2022-08-23T11:22:10.893Z,21.14
2022-08-23T11:23:11.732Z,21.16
2022-08-23T11:24:12.562Z,21.16
2022-08-23T11:25:13.392Z,21.17
2022-08-23T11:26:14.212Z,21.17
2022-08-23T11:27:15.055Z,21.21
2022-08-23T11:28:15.974Z,21.22
2022-08-23T11:29:16.802Z,21.24
2022-08-23T11:30:17.623Z,21.27
2022-08-23T11:31:18.477Z,21.29
2022-08-23T11:32:19.293Z,21.34
2022-08-23T11:33:20.126Z,21.35
2022-08-23T11:34:20.984Z,21.37
2022-08-23T11:35:21.552Z,21.40
2022-08-23T11:36:22.386Z,21.42
2022-08-23T11:37:23.484Z,21.44
2022-08-23T11:38:24.850Z,21.46
2022-08-23T11:39:25.265Z,21.44
2022-08-23T11:40:25.376Z,21.47
2022-08-23T11:41:26.163Z,21.46
2022-08-23T11:42:26.993Z,21.44
2022-08-23T11:43:27.834Z,21.47
2022-08-23T11:44:28.648Z,21.47
2022-08-23T11:45:29.477Z,21.49
2022-08-23T11:46:30.403Z,21.50
2022-08-23T11:47:31.229Z,21.52
2022-08-23T11:48:32.047Z,21.53
2022-08-23T11:49:32.878Z,21.53
2022-08-23T11:50:33.705Z,21.52
2022-08-23T11:51:34.534Z,21.53
2022-08-23T11:52:35.424Z,21.58
2022-08-23T11:53:36.217Z,21.59
2022-08-23T11:54:37.042Z,21.62
2022-08-23T11:55:37.892Z,21.64
2022-08-23T11:56:38.708Z,21.68
2022-08-23T11:57:39.545Z,21.69
2022-08-23T11:58:40.386Z,21.72
2022-08-23T11:59:41.881Z,21.74
2022-08-23T12:00:41.744Z,21.79
2022-08-23T12:01:42.575Z,21.79
2022-08-23T12:02:43.872Z,21.82
2022-08-23T12:03:44.677Z,21.79
2022-08-23T12:04:45.216Z,21.80
2022-08-23T12:05:46.076Z,21.83
2022-08-23T12:06:51.059Z,21.84
2022-08-23T12:07:47.730Z,21.86
2022-08-23T12:08:48.560Z,21.88
2022-08-23T12:09:49.385Z,21.88
2022-08-23T12:10:50.221Z,21.88
2022-08-23T12:11:51.066Z,21.88
2022-08-23T12:12:51.913Z,21.90
2022-08-23T12:13:52.756Z,21.90
2022-08-23T12:14:53.581Z,21.91
2022-08-23T12:15:54.461Z,21.92
2022-08-23T12:16:56.856Z,21.94
2022-08-23T12:17:56.265Z,21.91
2022-08-23T12:18:57.024Z,21.91
2022-08-23T12:19:57.589Z,21.91
2022-08-23T12:20:58.146Z,21.91
2022-08-23T12:21:58.933Z,21.96
2022-08-23T12:22:59.788Z,21.99
2022-08-23T12:24:01.370Z,22.00
2022-08-23T12:25:01.302Z,22.05
2022-08-23T12:26:02.141Z,22.06
2022-08-23T12:27:02.958Z,22.09
2022-08-23T12:28:03.802Z,22.12
2022-08-23T12:29:04.632Z,22.10
2022-08-23T12:30:05.486Z,22.14
2022-08-23T12:31:07.959Z,22.15
2022-08-23T12:32:08.003Z,22.18
2022-08-23T12:33:07.833Z,22.18
2022-08-23T12:34:08.666Z,22.17
2022-08-23T12:35:09.500Z,22.15
2022-08-23T12:36:12.438Z,22.14
2022-08-23T12:37:12.041Z,22.14
2022-08-23T12:38:11.882Z,22.12
2022-08-23T12:39:12.712Z,22.12
2022-08-23T12:40:13.638Z,22.14
2022-08-23T12:41:14.409Z,22.15
2022-08-23T12:42:15.235Z,22.15
2022-08-23T12:43:17.553Z,22.17
2022-08-23T12:44:17.790Z,22.18
2022-08-23T12:45:17.621Z,22.17
2022-08-23T12:46:18.518Z,22.15
2022-08-23T12:47:19.298Z,22.15
2022-08-23T12:48:20.139Z,22.14
2022-08-23T12:49:20.972Z,22.17
2022-08-23T12:50:21.794Z,22.17
2022-08-23T12:51:23.548Z,22.18
2022-08-23T12:52:23.348Z,22.18
2022-08-23T12:53:24.187Z,22.15
2022-08-23T12:54:25.016Z,22.18
2022-08-23T12:55:25.847Z,22.20
2022-08-23T12:56:31.317Z,22.20
2022-08-23T12:57:28.393Z,22.22
2022-08-23T12:58:31.650Z,22.21
2022-08-23T12:59:29.943Z,22.24
2022-08-23T13:00:29.785Z,22.24
2022-08-23T13:01:31.151Z,22.24
2022-08-23T13:02:31.573Z,22.25
2022-08-23T13:03:32.383Z,22.28
2022-08-23T13:04:33.222Z,22.31
2022-08-23T13:05:34.044Z,22.33
2022-08-23T13:06:34.873Z,22.36
2022-08-23T13:07:35.716Z,22.36
2022-08-23T13:08:36.541Z,22.39
2022-08-23T13:09:37.360Z,22.36
2022-08-23T13:10:38.189Z,22.39
2022-08-23T13:11:39.019Z,22.37
2022-08-23T13:12:39.855Z,22.39
2022-08-23T13:13:40.693Z,22.43
2022-08-23T13:14:41.515Z,22.46
2022-08-23T13:15:42.382Z,22.47
2022-08-23T13:16:43.182Z,22.47
2022-08-23T13:17:44.022Z,22.47